createdAt,value
2022-07-26T00:00:12.676Z,17.99
2022-07-26T00:02:47.174Z,18.01
2022-07-26T00:05:18.555Z,17.97
2022-07-26T00:07:45.985Z,17.94
2022-07-26T00:10:13.430Z,17.99
2022-07-26T00:12:40.424Z,17.96
2022-07-26T00:15:09.828Z,18.02
2022-07-26T00:17:36.466Z,17.94
2022-07-26T00:20:04.140Z,18.01
2022-07-26T00:22:36.422Z,17.99
2022-07-26T00:25:06.737Z,17.95
2022-07-26T00:27:36.997Z,17.90
2022-07-26T00:30:09.183Z,17.91
2022-07-26T00:32:36.886Z,17.87
2022-07-26T00:35:04.156Z,17.85
2022-07-26T00:37:31.324Z,17.82
2022-07-26T00:39:58.009Z,17.89
2022-07-26T00:42:24.825Z,17.90
2022-07-26T00:44:51.601Z,17.88
2022-07-26T00:47:18.331Z,17.93
2022-07-26T00:49:45.198Z,17.87
2022-07-26T00:52:12.992Z,17.87
2022-07-26T00:54:43.882Z,17.92
2022-07-26T00:57:10.599Z,17.97
2022-07-26T00:59:37.638Z,18.00
2022-07-26T01:02:06.918Z,18.05
2022-07-26T01:04:34.300Z,18.06
2022-07-26T01:07:02.270Z,18.06
2022-07-26T01:09:41.750Z,18.04
2022-07-26T01:12:09.058Z,18.10
2022-07-26T01:14:35.695Z,18.10
2022-07-26T01:17:02.439Z,18.12
2022-07-26T01:19:29.071Z,18.14
2022-07-26T01:21:55.688Z,18.04
2022-07-26T01:24:22.295Z,18.07
2022-07-26T01:26:48.905Z,18.06
2022-07-26T01:29:15.644Z,18.07
2022-07-26T01:31:42.338Z,18.04
2022-07-26T01:34:09.385Z,18.01
2022-07-26T01:36:36.345Z,18.05
2022-07-26T01:39:06.925Z,18.08
2022-07-26T01:41:38.302Z,18.04
2022-07-26T01:44:07.546Z,17.97
2022-07-26T01:46:35.926Z,17.96
2022-07-26T01:49:03.278Z,17.96
2022-07-26T01:51:30.526Z,17.97
2022-07-26T01:53:57.176Z,18.04
2022-07-26T01:56:24.025Z,18.03
2022-07-26T01:58:50.709Z,18.05
2022-07-26T02:01:39.142Z,18.04
2022-07-26T02:04:04.575Z,18.00
2022-07-26T02:06:31.421Z,17.95
2022-07-26T02:08:58.461Z,17.93
2022-07-26T02:11:26.134Z,17.92
2022-07-26T02:13:53.292Z,17.95
2022-07-26T02:16:20.240Z,18.04
2022-07-26T02:18:47.223Z,18.14
2022-07-26T02:21:13.875Z,18.18
2022-07-26T02:23:41.942Z,18.06
2022-07-26T02:26:09.047Z,18.04
2022-07-26T02:28:35.750Z,18.05
2022-07-26T02:31:02.484Z,18.02
2022-07-26T02:33:29.168Z,17.91
2022-07-26T02:35:55.797Z,17.92
2022-07-26T02:38:22.453Z,17.84
2022-07-26T02:40:52.591Z,17.86
2022-07-26T02:43:19.535Z,17.88
2022-07-26T02:46:01.226Z,17.82
2022-07-26T02:48:30.287Z,17.83
2022-07-26T02:50:57.082Z,17.86
2022-07-26T02:53:23.739Z,17.92
2022-07-26T02:55:50.327Z,18.01
2022-07-26T02:58:17.066Z,17.98
2022-07-26T03:00:43.759Z,17.98
2022-07-26T03:03:14.063Z,18.01
2022-07-26T03:05:40.907Z,18.09
2022-07-26T03:08:08.229Z,18.06
2022-07-26T03:10:34.909Z,18.10
2022-07-26T03:13:02.062Z,18.02
2022-07-26T03:15:29.009Z,17.95
2022-07-26T03:17:55.761Z,17.96
2022-07-26T03:20:22.892Z,17.92
2022-07-26T03:22:49.516Z,17.92
2022-07-26T03:25:16.190Z,17.84
2022-07-26T03:27:42.824Z,17.80
2022-07-26T03:30:10.485Z,17.85
2022-07-26T03:32:37.261Z,17.81
2022-07-26T03:35:04.863Z,17.81
2022-07-26T03:37:44.721Z,17.80
2022-07-26T03:40:16.973Z,17.87
2022-07-26T03:42:47.775Z,17.84
2022-07-26T03:45:15.576Z,17.90
2022-07-26T03:47:46.402Z,17.91
2022-07-26T03:50:13.835Z,17.92
2022-07-26T03:52:40.759Z,17.84
2022-07-26T03:55:26.439Z,17.81
2022-07-26T03:57:53.161Z,17.83
2022-07-26T04:00:19.774Z,17.86
2022-07-26T04:02:46.472Z,17.88
2022-07-26T04:05:13.295Z,17.91
2022-07-26T04:07:52.746Z,17.93
2022-07-26T04:10:21.722Z,17.87
2022-07-26T04:12:49.119Z,17.85
2022-07-26T04:15:17.160Z,17.80
2022-07-26T04:17:44.259Z,17.77
2022-07-26T04:20:12.703Z,17.75
2022-07-26T04:22:43.118Z,17.78
2022-07-26T04:25:10.513Z,17.82
2022-07-26T04:27:38.088Z,17.85
2022-07-26T04:30:08.525Z,17.87
2022-07-26T04:32:39.269Z,17.84
2022-07-26T04:35:06.198Z,17.82
2022-07-26T04:37:39.751Z,17.82
2022-07-26T04:40:08.048Z,17.85
2022-07-26T04:42:35.264Z,17.91
2022-07-26T04:45:08.027Z,17.86
2022-07-26T04:47:35.524Z,17.86
2022-07-26T04:50:03.898Z,17.95
2022-07-26T04:52:30.571Z,17.91
2022-07-26T04:54:57.157Z,17.90
2022-07-26T04:57:23.751Z,17.89
2022-07-26T04:59:58.327Z,17.90
2022-07-26T05:02:30.342Z,17.87
2022-07-26T05:04:57.034Z,17.92
2022-07-26T05:07:23.805Z,17.90
2022-07-26T05:09:50.505Z,18.04
2022-07-26T05:12:17.120Z,17.95
2022-07-26T05:14:46.738Z,17.94
2022-07-26T05:17:13.377Z,17.91
2022-07-26T05:19:48.937Z,17.86
2022-07-26T05:22:15.838Z,17.85
2022-07-26T05:24:42.725Z,17.82
2022-07-26T05:27:09.327Z,17.86
2022-07-26T05:29:36.058Z,17.83
2022-07-26T05:32:02.762Z,17.78
2022-07-26T05:34:29.404Z,17.77
2022-07-26T05:36:56.000Z,17.75
2022-07-26T05:39:22.806Z,17.81
2022-07-26T05:41:49.426Z,17.78
2022-07-26T05:44:16.098Z,17.85
2022-07-26T05:46:45.159Z,17.79
2022-07-26T05:49:11.913Z,17.83
2022-07-26T05:51:38.543Z,17.92
2022-07-26T05:54:05.454Z,17.92
2022-07-26T05:56:32.130Z,17.93
2022-07-26T05:58:58.759Z,18.02
2022-07-26T06:01:25.396Z,18.05
2022-07-26T06:03:53.151Z,18.11
2022-07-26T06:06:19.820Z,18.03
2022-07-26T06:08:46.417Z,17.98
2022-07-26T06:11:13.116Z,17.99
2022-07-26T06:13:39.736Z,18.06
2022-07-26T06:16:06.620Z,17.94
2022-07-26T06:18:33.330Z,17.96
2022-07-26T06:21:02.399Z,17.92
2022-07-26T06:23:33.564Z,17.94
2022-07-26T06:26:02.226Z,17.93
2022-07-26T06:28:28.813Z,17.84
2022-07-26T06:30:55.416Z,17.82
2022-07-26T06:33:22.158Z,17.91
2022-07-26T06:35:48.885Z,17.86
2022-07-26T06:38:15.496Z,17.85
2022-07-26T06:40:42.111Z,17.81
2022-07-26T06:43:08.712Z,17.80
2022-07-26T06:45:35.626Z,17.74
2022-07-26T06:48:02.321Z,17.74
2022-07-26T06:50:28.986Z,17.79
2022-07-26T06:52:55.760Z,17.84
2022-07-26T06:55:22.484Z,17.85
2022-07-26T06:57:50.422Z,17.74
2022-07-26T07:00:17.992Z,17.71
2022-07-26T07:02:44.699Z,17.62
2022-07-26T07:05:11.959Z,17.61
2022-07-26T07:07:38.920Z,17.59
2022-07-26T07:10:09.678Z,17.54
2022-07-26T07:12:36.365Z,17.58
2022-07-26T07:15:03.473Z,17.63
2022-07-26T07:17:30.093Z,17.65
2022-07-26T07:19:56.737Z,17.59
2022-07-26T07:22:23.335Z,17.49
2022-07-26T07:24:50.043Z,17.37
2022-07-26T07:27:16.668Z,17.23
2022-07-26T07:29:43.492Z,17.27
2022-07-26T07:32:18.304Z,17.26
2022-07-26T07:34:48.130Z,17.20
2022-07-26T07:37:15.768Z,17.04
2022-07-26T07:39:42.514Z,16.98
2022-07-26T07:42:09.327Z,16.96
2022-07-26T07:44:35.940Z,16.80
2022-07-26T07:47:02.703Z,16.83
2022-07-26T07:49:29.456Z,16.85
2022-07-26T07:51:56.122Z,16.79
2022-07-26T07:54:22.725Z,16.76
2022-07-26T07:56:53.051Z,16.67
2022-07-26T07:59:19.618Z,16.54
2022-07-26T08:01:50.175Z,16.56
2022-07-26T08:04:17.193Z,16.56
2022-07-26T08:06:50.959Z,16.61
2022-07-26T08:09:18.480Z,16.67
2022-07-26T08:11:45.839Z,16.72
2022-07-26T08:14:18.268Z,16.76
2022-07-26T08:16:45.079Z,16.76
2022-07-26T08:19:12.204Z,16.82
2022-07-26T08:21:39.108Z,16.99
2022-07-26T08:24:06.729Z,17.00
2022-07-26T08:26:33.416Z,17.04
2022-07-26T08:29:00.580Z,17.11
2022-07-26T08:31:28.873Z,17.12
2022-07-26T08:33:56.027Z,17.38
2022-07-26T08:36:23.125Z,17.50
2022-07-26T08:38:49.827Z,17.56
2022-07-26T08:41:19.519Z,17.69
2022-07-26T08:43:52.410Z,17.83
2022-07-26T08:46:26.901Z,17.81
2022-07-26T08:48:55.451Z,17.97
2022-07-26T08:51:24.335Z,18.14
2022-07-26T08:53:59.109Z,18.13
2022-07-26T08:56:30.609Z,18.10
2022-07-26T08:58:57.262Z,18.01
2022-07-26T09:01:24.053Z,18.05
2022-07-26T09:03:50.838Z,18.02
2022-07-26T09:06:22.716Z,17.97
2022-07-26T09:08:53.555Z,17.84
2022-07-26T09:11:33.102Z,17.96
2022-07-26T09:14:01.888Z,18.06
2022-07-26T09:16:29.227Z,18.08
2022-07-26T09:19:13.742Z,18.05
2022-07-26T09:21:40.337Z,18.27
2022-07-26T09:24:07.309Z,18.37
2022-07-26T09:26:33.944Z,18.70
2022-07-26T09:29:13.121Z,18.88
2022-07-26T09:31:40.377Z,19.10
2022-07-26T09:34:07.966Z,18.86
2022-07-26T09:36:50.928Z,19.16
2022-07-26T09:39:17.796Z,19.48
2022-07-26T09:42:24.983Z,19.61
2022-07-26T09:44:48.038Z,19.58
2022-07-26T09:47:18.290Z,19.77
2022-07-26T09:49:44.998Z,19.68
2022-07-26T09:52:20.155Z,20.11
2022-07-26T09:54:50.133Z,20.17
2022-07-26T09:57:19.346Z,20.72
2022-07-26T09:59:47.073Z,20.83
2022-07-26T10:02:14.503Z,21.27
2022-07-26T10:04:42.514Z,21.14
2022-07-26T10:07:10.703Z,21.44
2022-07-26T10:09:57.396Z,21.69
2022-07-26T10:12:30.720Z,21.41
2022-07-26T10:14:57.462Z,21.18
2022-07-26T10:17:29.228Z,20.99
2022-07-26T10:20:17.121Z,21.19
2022-07-26T10:22:48.122Z,21.31
2022-07-26T10:25:17.859Z,21.22
2022-07-26T10:27:55.524Z,21.05
2022-07-26T10:30:28.823Z,21.46
2022-07-26T10:33:03.936Z,21.63
2022-07-26T10:35:32.606Z,22.00
2022-07-26T10:38:00.161Z,21.99
2022-07-26T10:40:30.161Z,22.08
2022-07-26T10:43:39.401Z,22.01
2022-07-26T10:46:13.354Z,21.66
2022-07-26T10:48:56.566Z,21.50
2022-07-26T10:51:28.520Z,21.38
2022-07-26T10:54:03.558Z,21.18
2022-07-26T10:56:33.335Z,21.06
2022-07-26T10:59:01.505Z,21.06
2022-07-26T11:01:35.357Z,20.87
2022-07-26T11:04:02.119Z,21.15
2022-07-26T11:06:32.636Z,21.16
2022-07-26T11:09:10.528Z,21.56
2022-07-26T11:11:37.405Z,21.76
2022-07-26T11:14:09.639Z,21.96
2022-07-26T11:16:42.175Z,22.11
2022-07-26T11:19:24.354Z,22.11
2022-07-26T11:21:56.369Z,22.20
2022-07-26T11:24:23.218Z,22.07
2022-07-26T11:26:49.899Z,22.04
2022-07-26T11:29:38.999Z,22.35
2022-07-26T11:32:18.587Z,21.95
2022-07-26T11:34:45.995Z,21.98
2022-07-26T11:37:13.841Z,21.70
2022-07-26T11:39:40.523Z,21.70
2022-07-26T11:42:13.077Z,21.75
2022-07-26T11:44:44.304Z,21.77
2022-07-26T11:47:25.674Z,21.77
2022-07-26T11:52:40.557Z,21.34
2022-07-26T11:55:07.826Z,21.34
2022-07-26T11:57:34.487Z,21.00
2022-07-26T12:00:01.772Z,20.68
2022-07-26T12:02:38.261Z,20.54
2022-07-26T12:05:19.245Z,20.33
2022-07-26T12:08:03.848Z,20.22
2022-07-26T12:10:30.716Z,20.10
2022-07-26T12:13:11.983Z,20.07
2022-07-26T12:15:50.902Z,20.05
2022-07-26T12:18:50.692Z,19.91
2022-07-26T12:21:17.319Z,19.75
2022-07-26T12:23:48.121Z,19.75
2022-07-26T12:26:28.407Z,19.78
2022-07-26T12:28:56.373Z,19.72
2022-07-26T12:31:34.167Z,19.71
2022-07-26T12:34:01.458Z,19.62
2022-07-26T12:36:30.000Z,19.61
2022-07-26T12:38:58.497Z,19.58
2022-07-26T12:41:40.025Z,19.66
2022-07-26T12:44:08.414Z,19.56
2022-07-26T12:46:35.720Z,19.55
2022-07-26T12:49:04.007Z,19.56
2022-07-26T12:51:30.830Z,19.65
2022-07-26T12:53:57.729Z,19.64
2022-07-26T12:56:24.339Z,19.65
2022-07-26T12:58:51.014Z,19.71
2022-07-26T13:01:17.746Z,19.71
2022-07-26T13:03:44.538Z,19.98
2022-07-26T13:06:11.156Z,20.18
2022-07-26T13:08:37.860Z,20.61
2022-07-26T13:11:04.533Z,21.04
2022-07-26T13:13:31.160Z,21.14
2022-07-26T13:15:57.800Z,21.00
2022-07-26T13:18:24.385Z,21.24
2022-07-26T13:20:51.035Z,21.57
2022-07-26T13:23:21.436Z,22.70
2022-07-26T13:25:49.744Z,23.32
2022-07-26T13:28:17.334Z,23.55
2022-07-26T13:30:45.068Z,23.00
2022-07-26T13:33:12.240Z,22.32
2022-07-26T13:35:41.322Z,22.03
2022-07-26T13:38:09.110Z,21.86
2022-07-26T13:40:36.117Z,21.68
2022-07-26T13:43:04.202Z,21.28
2022-07-26T13:45:30.772Z,21.35
2022-07-26T13:47:59.239Z,21.46
2022-07-26T13:50:27.563Z,21.79
2022-07-26T13:52:57.566Z,21.94
2022-07-26T13:55:25.445Z,21.68
2022-07-26T13:57:57.652Z,21.67
2022-07-26T14:00:29.150Z,21.42
2022-07-26T14:02:58.341Z,21.44
2022-07-26T14:05:25.570Z,21.49
2022-07-26T14:07:53.190Z,21.45
2022-07-26T14:10:21.077Z,21.42
2022-07-26T14:12:48.189Z,21.37
2022-07-26T14:15:21.426Z,21.55
2022-07-26T14:17:48.595Z,21.50
2022-07-26T14:20:17.045Z,21.53
2022-07-26T14:22:44.277Z,21.67
2022-07-26T14:25:12.394Z,21.48
2022-07-26T14:27:39.336Z,21.50
2022-07-26T14:30:06.797Z,21.66
2022-07-26T14:32:33.493Z,21.87
2022-07-26T14:35:00.128Z,21.97
2022-07-26T14:37:42.177Z,21.96
2022-07-26T14:40:16.549Z,21.74
2022-07-26T14:42:44.961Z,22.26
2022-07-26T14:45:12.612Z,24.08
2022-07-26T14:47:39.935Z,24.88
2022-07-26T14:50:08.955Z,24.95
2022-07-26T14:52:42.666Z,25.33
2022-07-26T14:55:09.878Z,26.38
2022-07-26T14:57:39.857Z,26.87
2022-07-26T15:00:10.854Z,27.45
2022-07-26T15:02:45.172Z,27.35
2022-07-26T15:05:13.163Z,28.02
2022-07-26T15:07:41.532Z,27.97
2022-07-26T15:10:10.701Z,28.54
2022-07-26T15:12:37.719Z,28.45
2022-07-26T15:15:05.829Z,28.44
2022-07-26T15:17:32.586Z,27.91
2022-07-26T15:19:59.309Z,28.52
2022-07-26T15:22:26.536Z,28.65
2022-07-26T15:24:53.244Z,28.11
2022-07-26T15:27:19.869Z,27.81
2022-07-26T15:29:48.585Z,28.32
2022-07-26T15:32:15.272Z,27.82
2022-07-26T15:34:41.990Z,28.10
2022-07-26T15:37:09.492Z,28.00
2022-07-26T15:39:36.090Z,27.92
2022-07-26T15:42:07.548Z,27.40
2022-07-26T15:44:34.642Z,27.75
2022-07-26T15:47:01.655Z,28.49
2022-07-26T15:49:30.553Z,28.50
2022-07-26T15:51:57.221Z,28.82
2022-07-26T15:54:24.040Z,28.92
2022-07-26T15:56:50.727Z,29.32
2022-07-26T15:59:17.532Z,28.61
2022-07-26T16:01:44.196Z,28.36
2022-07-26T16:04:11.277Z,28.38
2022-07-26T16:06:38.368Z,28.04
2022-07-26T16:09:16.646Z,26.69
2022-07-26T16:11:44.895Z,25.98
2022-07-26T16:14:11.499Z,25.42
2022-07-26T16:16:38.162Z,25.14
2022-07-26T16:19:04.847Z,24.79
2022-07-26T16:21:32.434Z,24.73
2022-07-26T16:24:04.430Z,24.18
2022-07-26T16:26:33.438Z,23.68
2022-07-26T16:29:00.751Z,23.49
2022-07-26T16:31:27.791Z,22.97
2022-07-26T16:33:54.485Z,22.61
2022-07-26T16:36:21.106Z,22.42
2022-07-26T16:38:47.797Z,22.33
2022-07-26T16:41:14.601Z,22.14
2022-07-26T16:43:41.475Z,22.04
2022-07-26T16:46:08.075Z,22.04
2022-07-26T16:48:34.711Z,21.95
2022-07-26T16:51:01.536Z,21.76
2022-07-26T16:53:28.245Z,21.73
2022-07-26T16:55:54.837Z,21.62
2022-07-26T16:58:22.696Z,21.55
2022-07-26T17:00:49.596Z,21.53
2022-07-26T17:03:16.719Z,21.56
2022-07-26T17:05:45.907Z,21.70
2022-07-26T17:08:12.550Z,22.72
2022-07-26T17:10:39.177Z,23.96
2022-07-26T17:13:05.834Z,24.52
2022-07-26T17:15:32.807Z,24.00
2022-07-26T17:17:59.619Z,23.63
2022-07-26T17:20:26.321Z,23.25
2022-07-26T17:22:53.659Z,22.68
2022-07-26T17:25:20.675Z,22.45
2022-07-26T17:27:47.287Z,22.21
2022-07-26T17:30:14.150Z,22.05
2022-07-26T17:32:41.121Z,21.94
2022-07-26T17:35:08.712Z,21.69
2022-07-26T17:37:35.617Z,21.56
2022-07-26T17:40:04.046Z,21.57
2022-07-26T17:42:30.737Z,21.48
2022-07-26T17:44:57.487Z,21.47
2022-07-26T17:47:29.597Z,21.35
2022-07-26T17:52:48.284Z,21.23
2022-07-26T17:55:15.101Z,21.26
2022-07-26T17:57:42.373Z,21.22
2022-07-26T18:00:09.773Z,21.09
2022-07-26T18:02:36.387Z,21.07
2022-07-26T18:05:03.561Z,20.97
2022-07-26T18:07:30.260Z,20.92
2022-07-26T18:10:06.481Z,20.90
2022-07-26T18:12:33.293Z,20.89
2022-07-26T18:14:59.900Z,20.86
2022-07-26T18:17:26.627Z,20.82
2022-07-26T18:19:53.232Z,20.76
2022-07-26T18:22:19.867Z,20.76
2022-07-26T18:24:46.518Z,20.73
2022-07-26T18:27:13.207Z,20.72
2022-07-26T18:29:39.904Z,20.68
2022-07-26T18:32:06.716Z,20.74
2022-07-26T18:34:33.392Z,20.67
2022-07-26T18:37:00.035Z,20.67
2022-07-26T18:39:32.819Z,20.61
2022-07-26T18:42:00.376Z,20.51
2022-07-26T18:44:27.179Z,20.41
2022-07-26T18:46:55.989Z,20.35
2022-07-26T18:49:23.474Z,20.30
2022-07-26T18:51:52.326Z,20.11
2022-07-26T18:54:19.511Z,19.89
2022-07-26T18:56:46.189Z,19.61
2022-07-26T18:59:13.349Z,19.45
2022-07-26T19:01:40.241Z,19.32
2022-07-26T19:04:07.587Z,19.16
2022-07-26T19:06:35.410Z,19.25
2022-07-26T19:09:02.044Z,19.34
2022-07-26T19:11:30.201Z,19.44
2022-07-26T19:13:56.951Z,19.45
2022-07-26T19:16:23.712Z,19.44
2022-07-26T19:18:55.361Z,19.31
2022-07-26T19:21:24.235Z,19.07
2022-07-26T19:23:50.916Z,18.79
2022-07-26T19:26:17.564Z,18.70
2022-07-26T19:28:44.397Z,18.62
2022-07-26T19:31:11.191Z,18.50
2022-07-26T19:33:37.900Z,18.20
2022-07-26T19:36:04.670Z,18.12
2022-07-26T19:38:32.921Z,18.07
2022-07-26T19:41:00.265Z,18.18
2022-07-26T19:43:27.702Z,18.21
2022-07-26T19:45:54.408Z,18.17
2022-07-26T19:48:21.194Z,18.14
2022-07-26T19:50:47.881Z,18.14
2022-07-26T19:53:14.574Z,17.90
2022-07-26T19:55:42.445Z,17.91
2022-07-26T19:58:09.630Z,17.90
2022-07-26T20:00:36.382Z,17.64
2022-07-26T20:03:03.585Z,17.51
2022-07-26T20:05:30.380Z,17.39
2022-07-26T20:07:57.083Z,17.34
2022-07-26T20:10:27.338Z,17.32
2022-07-26T20:12:56.818Z,17.28
2022-07-26T20:15:23.650Z,17.25
2022-07-26T20:17:50.256Z,17.18
2022-07-26T20:20:17.914Z,17.13
2022-07-26T20:22:44.560Z,17.14
2022-07-26T20:25:11.518Z,17.08
2022-07-26T20:27:38.413Z,16.96
2022-07-26T20:30:06.270Z,16.96
2022-07-26T20:32:32.922Z,16.99
2022-07-26T20:34:59.543Z,17.19
2022-07-26T20:37:26.227Z,17.19
2022-07-26T20:39:52.865Z,17.18
2022-07-26T20:42:21.756Z,17.09
2022-07-26T20:44:48.957Z,17.09
2022-07-26T20:47:15.682Z,17.04
2022-07-26T20:49:42.318Z,16.98
2022-07-26T20:52:11.927Z,16.94
2022-07-26T20:54:38.543Z,17.04
2022-07-26T20:57:05.393Z,17.14
2022-07-26T20:59:32.443Z,17.26
2022-07-26T21:01:59.354Z,17.37
2022-07-26T21:04:26.205Z,17.45
2022-07-26T21:06:53.105Z,17.54
2022-07-26T21:09:19.865Z,17.63
2022-07-26T21:11:46.841Z,17.70
2022-07-26T21:14:13.675Z,17.71
2022-07-26T21:16:40.349Z,17.68
2022-07-26T21:19:07.035Z,17.68
2022-07-26T21:21:34.293Z,17.62
2022-07-26T21:24:01.023Z,17.59
2022-07-26T21:26:27.821Z,17.40
2022-07-26T21:28:54.483Z,17.26
2022-07-26T21:31:21.278Z,17.13
2022-07-26T21:33:47.938Z,16.98
2022-07-26T21:36:14.593Z,16.87
2022-07-26T21:38:42.359Z,16.75
2022-07-26T21:41:09.764Z,16.63
2022-07-26T21:43:40.087Z,16.55
2022-07-26T21:46:11.928Z,16.51
2022-07-26T21:48:39.585Z,16.47
2022-07-26T21:51:06.292Z,16.47
2022-07-26T21:53:32.924Z,16.44
2022-07-26T21:55:59.498Z,16.44
2022-07-26T21:58:27.979Z,16.54
2022-07-26T22:01:03.421Z,16.66
2022-07-26T22:03:35.535Z,16.61
2022-07-26T22:06:02.270Z,16.61
2022-07-26T22:08:29.016Z,16.58
2022-07-26T22:10:55.639Z,16.56
2022-07-26T22:13:22.257Z,16.45
2022-07-26T22:15:48.924Z,16.40
2022-07-26T22:18:15.773Z,16.32
2022-07-26T22:20:44.151Z,16.31
2022-07-26T22:23:12.187Z,16.34
2022-07-26T22:25:39.591Z,16.40
2022-07-26T22:28:07.535Z,16.51
2022-07-26T22:30:34.823Z,16.57
2022-07-26T22:33:03.259Z,16.48
2022-07-26T22:35:35.101Z,16.25
2022-07-26T22:38:06.461Z,16.04
2022-07-26T22:40:33.651Z,15.90
2022-07-26T22:43:00.523Z,15.90
2022-07-26T22:45:28.396Z,16.04
2022-07-26T22:47:56.232Z,16.12
2022-07-26T22:50:24.827Z,16.29
2022-07-26T22:52:52.006Z,16.41
2022-07-26T22:55:18.884Z,16.51
2022-07-26T22:57:45.954Z,16.57
2022-07-26T23:00:16.324Z,16.63
2022-07-26T23:02:43.347Z,16.63
2022-07-26T23:05:10.749Z,16.62
2022-07-26T23:07:38.151Z,16.59
2022-07-26T23:10:09.500Z,16.55
2022-07-26T23:12:36.443Z,16.50
2022-07-26T23:15:05.384Z,16.42
2022-07-26T23:17:32.164Z,16.33
2022-07-26T23:19:58.863Z,16.25
2022-07-26T23:22:25.516Z,16.15
2022-07-26T23:24:52.123Z,16.06
2022-07-26T23:27:20.269Z,16.09
2022-07-26T23:29:49.043Z,16.01
2022-07-26T23:32:15.900Z,15.88
2022-07-26T23:34:42.737Z,15.85
2022-07-26T23:37:09.439Z,15.81
2022-07-26T23:39:36.113Z,15.80
2022-07-26T23:42:02.972Z,15.82
2022-07-26T23:44:30.692Z,15.76
2022-07-26T23:46:58.184Z,15.73
2022-07-26T23:49:25.031Z,15.76
2022-07-26T23:51:52.244Z,15.81
2022-07-26T23:54:19.124Z,15.90
2022-07-26T23:56:46.888Z,15.94
2022-07-26T23:59:14.148Z,15.99
